Time;durP1;ratioP1;P1;durP2;ratioP2;P2;SDS_P1;SDS_P2;PMS_P1;PMS_P2;Temp;Humidity;BMP_temperature;BMP_pressure;BME280_temperature;BME280_humidity;BME280_pressure;Samples;Min_cycle;Max_cycle;Signal;HPM_P1;HPM_P2
2021/04/19 00:00:48;;;;;;;10.27;9.25;;;;;;;5.66;69.74;96708.59;5054800;28;20056;-76
2021/04/19 00:03:14;;;;;;;11.35;8.90;;;;;;;5.66;69.87;96704.22;5053174;28;20048;-76
2021/04/19 00:05:40;;;;;;;10.85;9.25;;;;;;;5.65;69.89;96704.41;5054613;28;20029;-75
2021/04/19 00:08:07;;;;;;;10.93;9.18;;;;;;;5.65;69.76;96701.81;5054425;28;20036;-76
2021/04/19 00:10:34;;;;;;;8.90;8.00;;;;;;;5.65;70.06;96697.41;5054074;28;20045;-76
2021/04/19 00:13:01;;;;;;;9.93;8.93;;;;;;;5.64;69.82;96692.38;5053952;28;20037;-76
2021/04/19 00:15:29;;;;;;;10.52;8.75;;;;;;;5.65;69.98;96691.41;5054459;28;20033;-76
2021/04/19 00:17:55;;;;;;;9.27;8.45;;;;;;;5.65;70.22;96686.19;5053185;28;20041;-76
2021/04/19 00:20:22;;;;;;;10.35;9.20;;;;;;;5.65;70.02;96686.19;5054320;28;20048;-76
2021/04/19 00:22:48;;;;;;;12.00;9.30;;;;;;;5.64;69.99;96684.56;5053571;28;20393;-76
2021/04/19 00:25:15;;;;;;;9.48;8.48;;;;;;;5.63;70.20;96675.16;5054365;28;20043;-76
2021/04/19 00:27:41;;;;;;;11.32;9.10;;;;;;;5.63;70.29;96675.16;5053783;28;20057;-75
2021/04/19 00:30:08;;;;;;;11.05;9.95;;;;;;;5.60;70.04;96680.72;5036640;28;20048;-76
2021/04/19 00:32:35;;;;;;;9.63;8.63;;;;;;;5.59;70.09;96679.91;5053405;28;20041;-76
2021/04/19 00:35:04;;;;;;;10.25;9.20;;;;;;;5.58;70.05;96677.47;5053776;28;20040;-76
2021/04/19 00:37:30;;;;;;;11.30;9.30;;;;;;;5.55;70.07;96677.84;5054617;28;20041;-76
2021/04/19 00:39:56;;;;;;;10.75;9.65;;;;;;;5.54;70.02;96682.22;5053937;28;20043;-76
2021/04/19 00:42:23;;;;;;;9.75;8.85;;;;;;;5.52;70.40;96678.19;5053874;28;20433;-75
2021/04/19 00:44:49;;;;;;;11.07;9.50;;;;;;;5.49;69.97;96682.78;5053738;28;20056;-75
2021/04/19 00:47:15;;;;;;;13.02;10.35;;;;;;;5.47;70.04;96676.16;5053842;28;20041;-75
2021/04/19 00:49:41;;;;;;;9.93;8.98;;;;;;;5.45;70.12;96680.72;5052431;28;20092;-75
2021/04/19 00:52:09;;;;;;;11.65;9.77;;;;;;;5.42;70.14;96679.28;5053892;28;20047;-75
2021/04/19 00:54:36;;;;;;;12.43;10.07;;;;;;;5.38;69.97;96680.63;5052833;28;20055;-76
2021/04/19 00:57:03;;;;;;;11.52;9.55;;;;;;;5.35;70.22;96678.38;5053810;28;20041;-75
2021/04/19 00:59:29;;;;;;;12.07;8.90;;;;;;;5.33;70.31;96674.34;5052942;28;20390;-76
2021/04/19 01:01:57;;;;;;;10.80;9.32;;;;;;;5.30;70.32;96670.31;5053351;28;20377;-76
2021/04/19 01:04:23;;;;;;;10.45;9.43;;;;;;;5.29;70.33;96671.28;5053177;28;20041;-76
2021/04/19 01:06:52;;;;;;;11.00;9.90;;;;;;;5.25;70.46;96677.84;5052653;28;20036;-76
2021/04/19 01:09:18;;;;;;;11.38;10.20;;;;;;;5.22;70.34;96670.41;5052482;28;20053;-75
2021/04/19 01:11:44;;;;;;;11.63;10.02;;;;;;;5.21;70.74;96671.41;5052596;28;20382;-76
2021/04/19 01:14:11;;;;;;;11.73;10.13;;;;;;;5.17;70.73;96670.94;5052247;28;20500;-76
2021/04/19 01:16:37;;;;;;;12.00;10.00;;;;;;;5.14;70.47;96668.66;5053229;28;20040;-76
2021/04/19 01:19:03;;;;;;;12.88;10.48;;;;;;;5.11;70.77;96670.84;5052917;28;20131;-76
2021/04/19 01:21:30;;;;;;;10.80;9.30;;;;;;;5.07;70.78;96672.97;5053164;28;20041;-76
2021/04/19 01:23:56;;;;;;;11.43;10.23;;;;;;;5.03;70.66;96671.72;5053504;28;20037;-76
2021/04/19 01:26:22;;;;;;;11.00;9.85;;;;;;;5.02;70.64;96680.50;5052955;28;20478;-76
2021/04/19 01:28:48;;;;;;;10.80;9.25;;;;;;;4.98;70.67;96680.06;5053462;28;20634;-75
2021/04/19 01:31:15;;;;;;;9.73;8.88;;;;;;;4.98;71.05;96676.66;5053030;28;20056;-76
2021/04/19 01:33:41;;;;;;;10.25;9.15;;;;;;;4.94;70.97;96672.78;5053440;28;20041;-76
2021/04/19 01:36:07;;;;;;;11.02;9.43;;;;;;;4.92;70.83;96670.34;5052825;28;20363;-76
2021/04/19 01:38:33;;;;;;;10.48;9.43;;;;;;;4.91;70.96;96675.72;5052900;28;20041;-75
2021/04/19 01:41:00;;;;;;;10.57;9.48;;;;;;;4.88;71.07;96672.50;5052921;28;20037;-75
2021/04/19 01:43:26;;;;;;;10.20;9.18;;;;;;;4.86;71.15;96665.88;5053058;28;20037;-76
2021/04/19 01:45:52;;;;;;;9.95;8.90;;;;;;;4.81;70.99;96671.59;5052868;28;20044;-76
2021/04/19 01:48:24;;;;;;;9.55;8.50;;;;;;;4.78;71.13;96669.31;5052723;28;20033;-76
2021/04/19 01:50:52;;;;;;;10.07;8.98;;;;;;;4.75;71.00;96666.28;5034636;28;20040;-76
2021/04/19 01:53:18;;;;;;;10.02;9.02;;;;;;;4.71;71.13;96673.63;5053164;28;20055;-75
2021/04/19 01:55:45;;;;;;;9.85;8.90;;;;;;;4.69;70.99;96662.59;5052880;28;20508;-76
2021/04/19 01:58:17;;;;;;;9.57;8.65;;;;;;;4.67;71.13;96667.16;5052652;28;20051;-76
2021/04/19 02:00:50;;;;;;;10.48;8.75;;;;;;;4.67;71.50;96665.38;5052784;28;20040;-76
2021/04/19 02:03:28;;;;;;;10.45;8.77;;;;;;;4.66;71.77;96670.72;5057210;28;20045;-74
2021/04/19 02:06:06;;;;;;;9.93;8.63;;;;;;;4.66;71.65;96660.34;5041989;28;20396;-75
2021/04/19 02:08:51;;;;;;;11.73;8.98;;;;;;;4.67;71.56;96664.56;5056660;28;20037;-74
2021/04/19 02:11:54;;;;;;;10.15;8.95;;;;;;;4.68;72.57;96655.78;5056900;28;20044;-76
2021/04/19 02:14:55;;;;;;;10.43;9.27;;;;;;;4.70;72.55;96656.41;5043563;28;20033;-75
2021/04/19 02:17:46;;;;;;;10.85;9.75;;;;;;;4.70;72.20;96661.59;4952666;28;20049;-75
2021/04/19 02:20:30;;;;;;;10.35;9.25;;;;;;;4.71;72.33;96657.25;5056242;28;20033;-75
2021/04/19 02:23:06;;;;;;;10.85;9.55;;;;;;;4.67;72.28;96652.38;5056468;28;20374;-75
2021/04/19 02:25:39;;;;;;;10.75;9.63;;;;;;;4.61;71.93;96650.47;5038518;28;20029;-76
2021/04/19 02:28:10;;;;;;;10.68;9.63;;;;;;;4.60;71.98;96650.66;5055670;28;20055;-77
2021/04/19 02:30:39;;;;;;;9.82;8.85;;;;;;;4.62;71.95;96651.28;5055609;28;20413;-75
2021/04/19 02:33:14;;;;;;;12.30;10.20;;;;;;;4.63;72.45;96653.72;5041967;28;20029;-75
2021/04/19 02:35:43;;;;;;;10.90;8.63;;;;;;;4.66;72.20;96649.94;5056248;28;20033;-75
2021/04/19 02:38:15;;;;;;;12.20;10.40;;;;;;;4.67;72.42;96649.78;5055383;28;20044;-76
2021/04/19 02:40:43;;;;;;;10.32;9.32;;;;;;;4.66;72.41;96648.19;5055271;28;20033;-75
2021/04/19 02:43:10;;;;;;;11.00;9.63;;;;;;;4.64;72.12;96647.53;5056059;28;20071;-74
2021/04/19 02:45:37;;;;;;;12.43;10.23;;;;;;;4.64;72.26;96646.72;5055386;28;20044;-75
2021/04/19 02:48:05;;;;;;;13.75;10.48;;;;;;;4.60;72.44;96648.88;5038361;28;20044;-75
2021/04/19 02:50:33;;;;;;;10.60;9.68;;;;;;;4.58;72.52;96653.44;5055656;28;20492;-75
2021/04/19 02:53:01;;;;;;;10.65;9.23;;;;;;;4.59;72.46;96659.44;5038072;28;20389;-76
2021/04/19 02:55:30;;;;;;;10.30;9.20;;;;;;;4.57;72.50;96649.22;5056023;28;20053;-75
2021/04/19 02:58:04;;;;;;;11.18;9.85;;;;;;;4.56;72.61;96652.00;5055636;28;20033;-76
2021/04/19 03:00:38;;;;;;;11.38;9.20;;;;;;;4.55;72.77;96653.78;5054934;28;20056;-77
2021/04/19 03:03:09;;;;;;;13.85;10.02;;;;;;;4.52;72.72;96653.34;5055644;28;20033;-75
2021/04/19 03:05:37;;;;;;;11.38;9.80;;;;;;;4.52;72.67;96659.31;5055492;28;20037;-77
2021/04/19 03:08:10;;;;;;;10.98;9.70;;;;;;;4.53;73.04;96660.94;5055738;28;20033;-76
2021/04/19 03:10:42;;;;;;;12.10;9.27;;;;;;;4.54;72.91;96643.56;5055478;28;20041;-76
2021/04/19 03:13:10;;;;;;;10.82;9.50;;;;;;;4.53;72.98;96655.72;5054760;28;20049;-77
2021/04/19 03:15:39;;;;;;;11.70;9.13;;;;;;;4.52;72.98;96648.13;5055386;28;20470;-75
2021/04/19 03:18:09;;;;;;;10.57;9.57;;;;;;;4.48;73.23;96650.28;5055677;28;20025;-75
2021/04/19 03:21:04;;;;;;;12.23;10.20;;;;;;;4.45;73.85;96655.78;5055355;28;20037;-77
2021/04/19 03:23:37;;;;;;;10.45;8.93;;;;;;;4.41;73.61;96647.56;5042530;28;20037;-76
2021/04/19 03:26:05;;;;;;;10.43;9.37;;;;;;;4.42;73.13;96649.16;5055187;28;20473;-77
2021/04/19 03:28:33;;;;;;;9.88;8.88;;;;;;;4.43;73.46;96653.41;5056579;28;20060;-75
2021/04/19 03:31:06;;;;;;;9.43;8.52;;;;;;;4.43;73.54;96644.78;5074718;28;20515;-75
2021/04/19 03:33:36;;;;;;;10.18;9.18;;;;;;;4.46;73.48;96649.63;5075423;28;20041;-76
2021/04/19 03:36:03;;;;;;;10.27;9.27;;;;;;;4.47;73.38;96646.88;5075291;28;20370;-76
2021/04/19 03:38:32;;;;;;;10.40;9.35;;;;;;;4.46;73.48;96644.44;5073513;28;20040;-76
2021/04/19 03:40:59;;;;;;;10.20;9.15;;;;;;;4.45;73.50;96645.41;5074388;28;20037;-76
2021/04/19 03:43:26;;;;;;;10.65;9.05;;;;;;;4.44;73.59;96643.81;5075028;28;20465;-75
2021/04/19 03:45:57;;;;;;;12.27;9.30;;;;;;;4.45;73.48;96651.44;5074579;28;20041;-76
2021/04/19 03:48:26;;;;;;;11.85;9.45;;;;;;;4.46;73.70;96641.84;5074340;28;20045;-75
2021/04/19 03:50:57;;;;;;;12.73;10.05;;;;;;;4.47;73.82;96643.44;5074218;28;20052;-75
2021/04/19 03:53:26;;;;;;;10.60;9.27;;;;;;;4.45;73.61;96637.63;5075256;28;20044;-75
2021/04/19 03:55:54;;;;;;;9.43;8.48;;;;;;;4.45;73.63;96638.44;5075153;28;20033;-75
2021/04/19 03:58:23;;;;;;;10.85;9.82;;;;;;;4.46;73.62;96640.03;5074529;28;20469;-75
2021/04/19 04:00:52;;;;;;;11.80;9.73;;;;;;;4.44;73.72;96643.81;5074672;28;20408;-75
2021/04/19 04:03:20;;;;;;;10.10;9.02;;;;;;;4.41;73.71;96638.94;5074543;28;20041;-76
2021/04/19 04:05:47;;;;;;;10.57;9.35;;;;;;;4.38;73.77;96634.13;5074191;28;20040;-76
2021/04/19 04:08:15;;;;;;;11.65;9.48;;;;;;;4.31;73.52;96639.19;5073049;28;20040;-76
2021/04/19 04:10:42;;;;;;;9.85;8.85;;;;;;;4.23;73.69;96634.84;5074305;28;20059;-76
2021/04/19 04:13:08;;;;;;;9.95;8.32;;;;;;;4.21;73.69;96633.44;5074481;28;20040;-76
2021/04/19 04:15:34;;;;;;;9.50;8.52;;;;;;;4.22;74.19;96633.25;5074317;28;20040;-75
2021/04/19 04:18:00;;;;;;;11.15;9.25;;;;;;;4.25;74.23;96629.50;5072887;28;20047;-76
2021/04/19 04:20:27;;;;;;;10.63;9.52;;;;;;;4.26;74.09;96634.53;5074042;28;20062;-77
2021/04/19 04:22:54;;;;;;;9.52;8.50;;;;;;;4.27;74.49;96630.13;5074204;28;20032;-79
2021/04/19 04:25:21;;;;;;;10.07;9.02;;;;;;;4.29;74.10;96632.56;5074039;28;20036;-76
2021/04/19 04:27:47;;;;;;;10.68;9.50;;;;;;;4.31;74.43;96639.19;5069004;28;20397;-77
2021/04/19 04:30:14;;;;;;;9.05;7.93;;;;;;;4.31;74.32;96623.63;5052950;28;20053;-76
2021/04/19 04:32:40;;;;;;;10.10;8.88;;;;;;;4.33;74.40;96628.66;5053714;28;20045;-77
2021/04/19 04:35:07;;;;;;;11.18;8.80;;;;;;;4.33;74.27;96632.03;5036651;28;20033;-77
2021/04/19 04:37:33;;;;;;;9.57;8.48;;;;;;;4.35;74.26;96629.28;5042642;28;20041;-77
2021/04/19 04:39:59;;;;;;;10.73;8.60;;;;;;;4.37;74.44;96630.72;5035209;28;20041;-77
2021/04/19 04:42:28;;;;;;;10.68;8.43;;;;;;;4.37;74.18;96628.13;5054037;28;20045;-76
2021/04/19 04:44:55;;;;;;;9.27;8.20;;;;;;;4.38;74.10;96632.31;5053589;28;20051;-77
2021/04/19 04:48:01;;;;;;;9.43;8.40;;;;;;;4.42;74.47;96628.38;5052569;28;20052;-77
2021/04/19 04:50:36;;;;;;;9.57;8.68;;;;;;;4.43;74.30;96627.44;4953492;29;20046;-77
2021/04/19 04:53:19;;;;;;;9.38;8.35;;;;;;;4.45;74.26;96637.63;4953521;29;20533;-77
2021/04/19 04:55:47;;;;;;;10.23;8.55;;;;;;;4.45;74.18;96625.47;5018200;28;20402;-76
2021/04/19 04:58:15;;;;;;;6.60;5.78;;;;;;;4.65;79.33;96630.97;5054081;28;20033;-74
2021/04/19 05:00:43;;;;;;;8.65;6.25;;;;;;;5.35;83.40;96630.75;5052180;28;20071;-76
2021/04/19 05:03:11;;;;;;;9.50;8.50;;;;;;;5.68;76.96;96626.78;5053088;28;20401;-76
2021/04/19 05:05:40;;;;;;;8.35;7.55;;;;;;;5.69;74.92;96636.22;5052389;28;20041;-76
2021/04/19 05:08:11;;;;;;;10.10;8.38;;;;;;;5.59;73.86;96634.88;5053127;28;20040;-76
2021/04/19 05:10:41;;;;;;;8.93;8.02;;;;;;;5.43;73.59;96630.66;5053436;28;20485;-76
2021/04/19 05:13:15;;;;;;;11.20;8.80;;;;;;;5.23;73.54;96630.44;5053375;28;21031;-76
2021/04/19 05:15:47;;;;;;;9.75;8.43;;;;;;;5.09;73.64;96632.03;5052637;28;20045;-76
2021/04/19 05:18:18;;;;;;;10.60;9.43;;;;;;;4.98;74.02;96632.47;5053169;28;20030;-78
2021/04/19 05:20:45;;;;;;;10.07;8.88;;;;;;;4.82;74.05;96639.41;5053837;28;20041;-76
2021/04/19 05:23:13;;;;;;;13.30;8.90;;;;;;;4.71;74.23;96633.84;5053053;28;20043;-76
2021/04/19 05:25:40;;;;;;;9.20;8.40;;;;;;;4.69;74.64;96639.22;5052210;28;20045;-76
2021/04/19 05:28:07;;;;;;;9.85;8.45;;;;;;;4.63;74.65;96642.50;5052987;28;20040;-77
2021/04/19 05:30:34;;;;;;;11.73;9.93;;;;;;;4.54;74.75;96640.97;5053336;28;20382;-76
2021/04/19 05:33:03;;;;;;;10.80;9.10;;;;;;;4.45;75.04;96646.25;5053076;28;20033;-76
2021/04/19 05:35:30;;;;;;;9.55;8.57;;;;;;;4.34;74.93;96646.63;5052823;28;20411;-76
2021/04/19 05:37:57;;;;;;;10.60;8.43;;;;;;;4.33;75.34;96649.41;5052976;28;20033;-77
2021/04/19 05:40:29;;;;;;;9.48;8.55;;;;;;;4.32;75.53;96645.19;5053118;28;20469;-76
2021/04/19 05:42:57;;;;;;;10.70;9.15;;;;;;;4.29;75.56;96646.34;5053079;28;20037;-77
2021/04/19 05:45:24;;;;;;;9.60;8.70;;;;;;;4.31;75.72;96653.97;5052089;28;20067;-76
2021/04/19 05:47:52;;;;;;;9.30;7.85;;;;;;;4.35;75.68;96653.44;5052791;28;20021;-77
2021/04/19 05:50:22;;;;;;;10.65;9.55;;;;;;;4.31;75.67;96653.97;5053261;28;20033;-77
2021/04/19 05:52:51;;;;;;;9.88;8.88;;;;;;;4.22;75.75;96654.03;5053039;28;20039;-77
2021/04/19 05:55:19;;;;;;;10.02;9.02;;;;;;;4.22;76.00;96656.63;5035679;28;20029;-76
2021/04/19 05:57:56;;;;;;;12.52;9.93;;;;;;;4.21;76.22;96654.19;5052917;28;20048;-75
2021/04/19 06:00:48;;;;;;;9.25;8.35;;;;;;;4.15;76.98;96660.88;5053247;28;20037;-76
2021/04/19 06:03:29;;;;;;;9.25;8.25;;;;;;;4.15;76.61;96658.28;5052790;28;20037;-76
2021/04/19 06:06:20;;;;;;;9.48;8.30;;;;;;;4.20;76.82;96665.53;5052926;28;20036;-75
2021/04/19 06:09:24;;;;;;;13.23;9.43;;;;;;;4.28;78.23;96662.88;5053229;28;20382;-75
2021/04/19 06:12:01;;;;;;;9.70;8.65;;;;;;;4.30;77.05;96655.75;4956420;28;20034;-75
2021/04/19 06:14:36;;;;;;;11.57;9.55;;;;;;;4.33;76.82;96654.59;5036418;28;20045;-75
2021/04/19 06:17:04;;;;;;;9.90;8.38;;;;;;;4.32;76.38;96653.78;5043027;28;20044;-74
2021/04/19 06:19:35;;;;;;;9.57;8.57;;;;;;;4.33;76.56;96665.78;5034906;28;20434;-74
2021/04/19 06:22:01;;;;;;;9.57;8.57;;;;;;;4.32;76.48;96658.97;5052718;28;20401;-74
2021/04/19 06:24:28;;;;;;;11.25;9.82;;;;;;;4.30;76.54;96666.13;5051785;28;20061;-74
2021/04/19 06:26:54;;;;;;;12.40;10.15;;;;;;;4.26;76.46;96668.28;5051734;28;20052;-75
2021/04/19 06:29:30;;;;;;;10.88;9.65;;;;;;;4.21;77.23;96667.16;5053077;28;20053;-74
2021/04/19 06:31:57;;;;;;;11.07;9.23;;;;;;;4.24;76.97;96664.22;5052530;28;20053;-74
2021/04/19 06:34:24;;;;;;;11.65;9.77;;;;;;;4.25;77.45;96666.66;5052861;28;20119;-74
2021/04/19 06:36:51;;;;;;;9.90;8.90;;;;;;;4.28;77.15;96675.88;5051275;28;20041;-74
2021/04/19 06:39:20;;;;;;;10.68;9.30;;;;;;;4.30;77.58;96673.13;5052456;28;20033;-75
2021/04/19 06:41:47;;;;;;;11.73;10.20;;;;;;;4.32;77.47;96671.16;5052474;28;20366;-75
2021/04/19 06:44:14;;;;;;;12.55;10.75;;;;;;;4.35;77.36;96676.00;5052383;28;20044;-74
2021/04/19 06:46:44;;;;;;;12.68;10.73;;;;;;;4.33;77.81;96667.59;5052540;28;20386;-75
2021/04/19 06:49:13;;;;;;;10.32;9.20;;;;;;;4.34;77.57;96671.78;5045718;28;20040;-74
2021/04/19 06:51:40;;;;;;;11.07;9.32;;;;;;;4.35;77.64;96668.22;5056008;28;20052;-77
2021/04/19 06:54:06;;;;;;;11.63;10.38;;;;;;;4.37;77.88;96664.47;5055273;28;20041;-75
2021/04/19 06:56:42;;;;;;;12.57;10.13;;;;;;;4.40;78.19;96666.72;5055931;28;20033;-74
2021/04/19 06:59:23;;;;;;;12.30;10.07;;;;;;;4.42;78.29;96667.34;5044590;28;20037;-74
2021/04/19 07:01:51;;;;;;;12.25;10.25;;;;;;;4.50;77.99;96678.66;5055214;28;20060;-76
2021/04/19 07:04:23;;;;;;;13.23;9.98;;;;;;;4.55;78.45;96671.16;5054944;28;20053;-74
2021/04/19 07:06:50;;;;;;;12.38;9.93;;;;;;;4.57;77.74;96675.19;5055486;28;20116;-74
2021/04/19 07:09:26;;;;;;;10.80;9.80;;;;;;;4.59;77.90;96675.00;5055762;28;20389;-75
2021/04/19 07:11:57;;;;;;;14.98;13.48;;;;;;;4.55;77.70;96674.53;5055747;28;20037;-75
2021/04/19 07:14:27;;;;;;;14.23;12.55;;;;;;;4.53;77.94;96676.50;5054697;28;20052;-77
2021/04/19 07:16:54;;;;;;;12.32;10.68;;;;;;;4.48;78.10;96671.84;5047498;28;20032;-74
2021/04/19 07:19:21;;;;;;;11.55;10.35;;;;;;;4.50;78.37;96673.47;5055473;28;20037;-75
2021/04/19 07:21:47;;;;;;;13.18;11.77;;;;;;;4.52;78.39;96674.09;5055190;28;20072;-75
2021/04/19 07:24:14;;;;;;;13.60;10.95;;;;;;;4.44;78.38;96678.38;5055101;28;20052;-75
2021/04/19 07:26:42;;;;;;;13.30;11.55;;;;;;;4.44;78.55;96677.56;5054258;28;20476;-75
2021/04/19 07:29:09;;;;;;;14.30;10.70;;;;;;;4.47;78.97;96675.44;5055241;28;20053;-75
2021/04/19 07:31:55;;;;;;;12.77;11.15;;;;;;;4.48;79.05;96681.44;5053922;28;20060;-75
2021/04/19 07:34:30;;;;;;;12.45;11.05;;;;;;;4.41;78.78;96678.72;5055570;28;20041;-75
2021/04/19 07:37:02;;;;;;;11.75;9.68;;;;;;;4.37;78.73;96676.66;5055801;28;20052;-75
2021/04/19 07:39:32;;;;;;;13.00;10.95;;;;;;;4.40;79.48;96678.88;5053230;28;20033;-75
2021/04/19 07:42:00;;;;;;;12.05;10.75;;;;;;;4.42;79.14;96676.94;5055173;28;20033;-75
2021/04/19 07:44:42;;;;;;;15.93;11.55;;;;;;;4.45;80.43;96682.59;5037298;28;20036;-76
2021/04/19 07:47:31;;;;;;;16.88;12.23;;;;;;;4.44;80.06;96677.56;5045682;28;20396;-76
2021/04/19 07:50:03;;;;;;;12.77;11.45;;;;;;;4.42;79.51;96679.53;5055129;28;20389;-76
2021/04/19 07:52:31;;;;;;;14.95;12.30;;;;;;;4.43;79.27;96678.53;5053788;28;20044;-76
2021/04/19 07:55:06;;;;;;;13.55;11.43;;;;;;;4.46;80.10;96686.78;5054677;28;20041;-75
2021/04/19 07:57:33;;;;;;;12.93;11.23;;;;;;;4.50;79.43;96683.88;5055063;28;20136;-75
2021/04/19 07:59:59;;;;;;;13.85;12.32;;;;;;;4.49;79.64;96683.03;5054515;28;20405;-75
2021/04/19 08:02:26;;;;;;;15.00;12.70;;;;;;;4.50;79.75;96689.06;5053761;28;20405;-75
2021/04/19 08:04:54;;;;;;;14.63;11.75;;;;;;;4.54;79.74;96680.75;5054562;28;20048;-75
2021/04/19 08:07:28;;;;;;;11.45;9.93;;;;;;;4.60;79.79;96680.03;5054629;28;20044;-75
2021/04/19 08:10:04;;;;;;;14.55;11.70;;;;;;;4.65;79.87;96672.53;5035980;28;20398;-75
2021/04/19 08:12:42;;;;;;;15.13;12.05;;;;;;;4.66;79.85;96681.94;5054706;28;20496;-75
2021/04/19 08:15:12;;;;;;;13.85;12.45;;;;;;;4.70;79.53;96677.19;5054594;28;20048;-74
2021/04/19 08:17:39;;;;;;;15.50;13.75;;;;;;;4.67;79.91;96677.56;5054266;28;20032;-74
2021/04/19 08:20:14;;;;;;;12.65;7.30;;;;;;;4.83;85.58;96667.03;5054215;28;20478;-74
2021/04/19 08:22:43;;;;;;;9.23;7.13;;;;;;;5.65;89.53;96671.38;5053992;28;20057;-74
2021/04/19 08:25:13;;;;;;;12.05;10.45;;;;;;;6.09;82.41;96672.34;5054122;28;20037;-74
2021/04/19 08:27:44;;;;;;;12.63;11.07;;;;;;;6.17;80.03;96667.00;5052990;28;20045;-75
2021/04/19 08:30:15;;;;;;;12.60;11.30;;;;;;;6.09;78.80;96669.72;5053209;28;20424;-75
2021/04/19 08:32:46;;;;;;;12.13;10.93;;;;;;;5.97;78.28;96677.19;5053986;28;20063;-75
2021/04/19 08:35:13;;;;;;;14.25;11.65;;;;;;;5.81;78.30;96670.38;5054078;28;20036;-74
2021/04/19 08:37:40;;;;;;;13.85;11.80;;;;;;;5.64;78.41;96674.16;5054263;28;20037;-75
2021/04/19 08:40:08;;;;;;;13.48;11.95;;;;;;;5.47;78.38;96674.34;5053716;28;20041;-75
2021/04/19 08:42:36;;;;;;;14.00;12.48;;;;;;;5.31;78.97;96674.50;5054032;28;20469;-75
2021/04/19 08:45:03;;;;;;;15.27;12.18;;;;;;;5.23;79.35;96667.63;5052887;28;20044;-75
2021/04/19 08:47:31;;;;;;;14.68;12.18;;;;;;;5.15;79.19;96669.50;5053809;28;20371;-74
2021/04/19 08:49:59;;;;;;;14.93;12.95;;;;;;;5.14;79.83;96673.88;5052673;28;20418;-75
2021/04/19 08:52:27;;;;;;;15.75;14.02;;;;;;;5.13;80.12;96681.88;5054153;28;20040;-74
2021/04/19 08:54:54;;;;;;;15.35;13.75;;;;;;;5.11;80.31;96686.44;5053577;28;20043;-74
2021/04/19 08:57:21;;;;;;;18.25;13.88;;;;;;;5.07;80.39;96686.78;5053489;28;20048;-75
2021/04/19 08:59:50;;;;;;;16.92;14.48;;;;;;;5.09;80.33;96686.59;5034833;28;20401;-75
2021/04/19 09:02:18;;;;;;;18.05;14.23;;;;;;;5.03;80.24;96690.72;5053652;28;20044;-74
2021/04/19 09:05:01;;;;;;;16.23;14.18;;;;;;;5.01;81.29;96682.28;5053441;28;20037;-74
2021/04/19 09:07:31;;;;;;;15.02;13.52;;;;;;;5.03;80.76;96689.91;5043084;28;20485;-74
2021/04/19 09:09:58;;;;;;;8.10;6.95;;;;;;;5.18;84.36;96682.13;5053202;28;20044;-75
2021/04/19 09:12:27;;;;;;;14.63;12.43;;;;;;;5.66;82.59;96683.38;5052792;28;20041;-75
2021/04/19 09:15:15;;;;;;;13.82;12.43;;;;;;;5.79;80.65;96680.16;5053190;28;20029;-75
2021/04/19 09:17:43;;;;;;;15.32;11.85;;;;;;;5.79;80.04;96687.16;5052766;28;20037;-75
2021/04/19 09:20:13;;;;;;;14.27;12.35;;;;;;;5.76;80.11;96685.72;5053446;28;20047;-75
2021/04/19 09:22:40;;;;;;;16.25;13.45;;;;;;;5.66;79.75;96685.19;5052896;28;20048;-75
2021/04/19 09:25:15;;;;;;;13.80;12.38;;;;;;;5.59;79.94;96692.13;5053188;28;20029;-75
2021/04/19 09:27:56;;;;;;;16.48;13.32;;;;;;;5.49;80.23;96684.56;5053190;28;20053;-76
2021/04/19 09:30:25;;;;;;;15.45;13.75;;;;;;;5.39;80.08;96690.03;5039406;28;20083;-75
2021/04/19 09:33:03;;;;;;;15.15;13.55;;;;;;;5.33;81.42;96692.53;5052228;28;20068;-75
2021/04/19 09:35:42;;;;;;;18.27;14.43;;;;;;;5.31;81.79;96690.13;5052312;28;20056;-75
2021/04/19 09:38:33;;;;;;;17.40;15.23;;;;;;;5.22;82.05;96692.00;5053076;28;20041;-75
2021/04/19 09:41:00;;;;;;;20.15;16.65;;;;;;;5.15;81.24;96696.31;5052777;28;20032;-75
2021/04/19 09:43:43;;;;;;;19.75;15.10;;;;;;;5.11;81.58;96700.22;5053159;28;20040;-75
2021/04/19 09:46:15;;;;;;;15.70;14.10;;;;;;;5.14;82.41;96693.88;5052942;28;20040;-75
2021/04/19 09:48:55;;;;;;;15.60;14.02;;;;;;;5.23;82.71;96691.03;5052839;28;20041;-75
2021/04/19 09:51:34;;;;;;;15.98;14.38;;;;;;;5.32;82.51;96686.53;5052826;28;20041;-75
2021/04/19 09:54:09;;;;;;;16.38;14.05;;;;;;;5.38;82.05;96679.84;5052676;28;20044;-75
2021/04/19 09:56:46;;;;;;;19.20;15.73;;;;;;;5.46;82.08;96685.75;5053395;28;20334;-75
2021/04/19 09:59:28;;;;;;;17.27;14.75;;;;;;;5.54;81.97;96687.44;5039221;28;20061;-75
2021/04/19 10:01:55;;;;;;;20.00;16.25;;;;;;;5.57;81.86;96683.69;5052610;28;20037;-75
2021/04/19 10:04:23;;;;;;;17.48;15.25;;;;;;;5.60;81.90;96686.72;5052928;28;20049;-75
2021/04/19 10:06:55;;;;;;;16.77;15.07;;;;;;;5.60;82.27;96685.91;5052587;28;20482;-75
2021/04/19 10:09:32;;;;;;;17.80;14.30;;;;;;;5.69;82.12;96687.41;5052773;28;20119;-75
2021/04/19 10:11:59;;;;;;;22.65;17.50;;;;;;;5.79;82.26;96687.94;5051612;28;20378;-75
2021/04/19 10:14:27;;;;;;;17.75;15.85;;;;;;;5.86;81.95;96678.44;5052715;28;20037;-75
2021/04/19 10:16:53;;;;;;;19.27;16.23;;;;;;;5.87;81.90;96681.84;5035093;28;20044;-75
2021/04/19 10:19:23;;;;;;;17.13;15.32;;;;;;;5.95;81.83;96680.97;5052986;28;20029;-75
2021/04/19 10:22:08;;;;;;;17.35;15.63;;;;;;;6.00;82.23;96670.81;5052578;28;20056;-75
2021/04/19 10:24:36;;;;;;;18.70;16.70;;;;;;;6.02;81.82;96676.66;5043248;28;20056;-75
2021/04/19 10:27:04;;;;;;;16.80;14.68;;;;;;;6.07;81.78;96674.31;5056715;28;20041;-75
2021/04/19 10:29:32;;;;;;;15.80;14.15;;;;;;;6.15;82.04;96679.38;5056811;28;20056;-75
2021/04/19 10:32:01;;;;;;;19.10;17.13;;;;;;;6.21;81.99;96673.44;5056283;28;20047;-75
2021/04/19 10:34:30;;;;;;;17.67;15.50;;;;;;;6.20;81.94;96671.84;5056369;28;20424;-75
2021/04/19 10:37:05;;;;;;;16.80;15.02;;;;;;;6.23;82.44;96679.28;5056387;28;20033;-74
2021/04/19 10:39:33;;;;;;;21.67;19.38;;;;;;;6.27;82.14;96666.69;5042305;28;20500;-75
2021/04/19 10:42:04;;;;;;;29.65;26.50;;;;;;;6.29;82.25;96675.94;5056109;28;20037;-75
2021/04/19 10:44:38;;;;;;;57.53;52.40;;;;;;;6.33;82.49;96675.56;5055435;28;20049;-75
2021/04/19 10:47:06;;;;;;;34.95;31.48;;;;;;;6.36;82.52;96675.19;5056328;28;20033;-75
2021/04/19 10:49:33;;;;;;;19.10;16.98;;;;;;;6.32;81.89;96669.56;5056299;28;20041;-75
2021/04/19 10:52:02;;;;;;;21.85;17.35;;;;;;;6.34;82.45;96664.97;5038195;28;20048;-75
2021/04/19 10:54:34;;;;;;;23.98;21.45;;;;;;;6.39;82.57;96667.03;5055940;28;20029;-75
2021/04/19 10:57:03;;;;;;;19.23;17.23;;;;;;;6.48;82.72;96668.50;5039267;28;20040;-76
2021/04/19 10:59:29;;;;;;;21.85;17.52;;;;;;;6.52;82.51;96668.94;5041395;28;20032;-75
2021/04/19 11:02:03;;;;;;;19.83;16.67;;;;;;;6.54;82.77;96667.75;5055733;28;20066;-75
2021/04/19 11:04:30;;;;;;;16.77;15.03;;;;;;;6.56;82.40;96664.97;5055853;28;20048;-75
2021/04/19 11:07:32;;;;;;;17.38;15.57;;;;;;;6.62;82.64;96659.81;5055355;28;20382;-74
2021/04/19 11:10:23;;;;;;;16.73;14.93;;;;;;;6.66;82.19;96662.88;5045408;28;20033;-75
2021/04/19 11:13:18;;;;;;;15.52;13.55;;;;;;;6.65;81.93;96659.44;5050674;28;20036;-75
2021/04/19 11:15:48;;;;;;;17.17;14.52;;;;;;;6.71;82.37;96653.47;5055002;28;20043;-75
2021/04/19 11:18:28;;;;;;;16.35;14.68;;;;;;;6.76;82.24;96663.34;5055798;28;20041;-74
2021/04/19 11:20:56;;;;;;;16.63;14.65;;;;;;;6.81;82.47;96652.34;5054678;28;20040;-75
2021/04/19 11:23:25;;;;;;;15.82;14.23;;;;;;;6.86;82.11;96648.16;5054233;28;20053;-75
2021/04/19 11:25:53;;;;;;;14.38;12.88;;;;;;;6.88;81.51;96659.22;5056044;28;20393;-75
2021/04/19 11:28:23;;;;;;;17.40;14.07;;;;;;;6.83;82.02;96651.16;5054993;28;20052;-75
2021/04/19 11:30:53;;;;;;;15.65;14.05;;;;;;;6.85;82.10;96656.19;5055615;28;20492;-75
2021/04/19 11:33:27;;;;;;;13.48;12.18;;;;;;;6.90;81.99;96653.81;5055192;28;20037;-75
2021/04/19 11:36:00;;;;;;;;;;;;;;;6.94;81.91;96654.25;5045232;28;20051;-75
2021/04/19 11:38:26;;;;;;;11.98;10.55;;;;;;;6.90;81.59;96657.22;5055013;28;20316;-75
2021/04/19 11:40:58;;;;;;;12.05;10.85;;;;;;;6.90;81.79;96659.03;5055521;28;20503;-74
2021/04/19 11:43:26;;;;;;;11.85;10.65;;;;;;;6.88;81.63;96656.59;5055213;28;20025;-74
2021/04/19 11:46:03;;;;;;;12.18;10.95;;;;;;;6.88;81.89;96658.41;5054963;28;20029;-75
2021/04/19 11:48:31;;;;;;;12.55;10.98;;;;;;;6.87;81.72;96655.00;5055673;28;20044;-74